sensor_id;sensor_type;location;lat;lon;timestamp;temperature;humidity
11239;DHT22;5677;48.488;13.436;2023-03-01T00:02:19;11.30;42.40
11239;DHT22;5677;48.488;13.436;2023-03-01T00:04:47;11.40;42.30
11239;DHT22;5677;48.488;13.436;2023-03-01T00:07:14;11.40;42.20
11239;DHT22;5677;48.488;13.436;2023-03-01T00:09:40;11.40;42.40
11239;DHT22;5677;48.488;13.436;2023-03-01T00:12:07;11.40;42.30
11239;DHT22;5677;48.488;13.436;2023-03-01T00:14:35;11.40;42.50
11239;DHT22;5677;48.488;13.436;2023-03-01T00:17:02;11.40;42.50
11239;DHT22;5677;48.488;13.436;2023-03-01T00:19:29;11.40;42.50
11239;DHT22;5677;48.488;13.436;2023-03-01T00:21:59;11.40;42.60
11239;DHT22;5677;48.488;13.436;2023-03-01T00:24:26;11.40;42.70
11239;DHT22;5677;48.488;13.436;2023-03-01T00:26:53;11.40;42.80
11239;DHT22;5677;48.488;13.436;2023-03-01T00:29:21;11.40;42.80
11239;DHT22;5677;48.488;13.436;2023-03-01T00:31:48;11.40;43.00
11239;DHT22;5677;48.488;13.436;2023-03-01T00:34:14;11.30;42.90
11239;DHT22;5677;48.488;13.436;2023-03-01T00:36:41;11.40;43.00
11239;DHT22;5677;48.488;13.436;2023-03-01T00:39:13;11.40;43.10
11239;DHT22;5677;48.488;13.436;2023-03-01T00:41:40;11.30;43.00
11239;DHT22;5677;48.488;13.436;2023-03-01T00:44:07;11.30;43.10
11239;DHT22;5677;48.488;13.436;2023-03-01T00:46:33;11.30;43.10
11239;DHT22;5677;48.488;13.436;2023-03-01T00:49:03;11.40;43.10
11239;DHT22;5677;48.488;13.436;2023-03-01T00:51:30;11.30;43.20
11239;DHT22;5677;48.488;13.436;2023-03-01T00:54:00;11.30;43.10
11239;DHT22;5677;48.488;13.436;2023-03-01T00:56:29;11.30;43.80
11239;DHT22;5677;48.488;13.436;2023-03-01T00:58:56;11.30;43.20
11239;DHT22;5677;48.488;13.436;2023-03-01T01:01:24;11.30;43.20
11239;DHT22;5677;48.488;13.436;2023-03-01T01:03:55;11.30;43.20
11239;DHT22;5677;48.488;13.436;2023-03-01T01:06:23;11.30;43.20
11239;DHT22;5677;48.488;13.436;2023-03-01T01:08:51;11.30;43.20
11239;DHT22;5677;48.488;13.436;2023-03-01T01:11:19;11.30;43.30
11239;DHT22;5677;48.488;13.436;2023-03-01T01:13:48;11.30;43.30
11239;DHT22;5677;48.488;13.436;2023-03-01T01:16:16;11.30;43.30
11239;DHT22;5677;48.488;13.436;2023-03-01T01:18:43;11.30;43.30
11239;DHT22;5677;48.488;13.436;2023-03-01T01:21:12;11.30;43.30
11239;DHT22;5677;48.488;13.436;2023-03-01T01:23:40;11.30;43.30
11239;DHT22;5677;48.488;13.436;2023-03-01T01:26:09;11.30;43.40
11239;DHT22;5677;48.488;13.436;2023-03-01T01:28:37;11.30;43.40
11239;DHT22;5677;48.488;13.436;2023-03-01T01:31:06;11.30;43.40
11239;DHT22;5677;48.488;13.436;2023-03-01T01:33:33;11.30;43.40
11239;DHT22;5677;48.488;13.436;2023-03-01T01:36:00;11.30;43.40
11239;DHT22;5677;48.488;13.436;2023-03-01T01:38:27;11.30;43.40
11239;DHT22;5677;48.488;13.436;2023-03-01T01:40:54;11.30;43.40
11239;DHT22;5677;48.488;13.436;2023-03-01T01:43:22;11.30;43.40
11239;DHT22;5677;48.488;13.436;2023-03-01T01:45:50;11.30;44.10
11239;DHT22;5677;48.488;13.436;2023-03-01T01:48:21;11.30;43.50
11239;DHT22;5677;48.488;13.436;2023-03-01T01:50:53;11.30;43.40
11239;DHT22;5677;48.488;13.436;2023-03-01T01:53:22;11.30;43.40
11239;DHT22;5677;48.488;13.436;2023-03-01T01:55:53;11.30;43.40
11239;DHT22;5677;48.488;13.436;2023-03-01T01:58:23;11.30;43.50
11239;DHT22;5677;48.488;13.436;2023-03-01T02:00:51;11.30;43.40
11239;DHT22;5677;48.488;13.436;2023-03-01T02:03:23;11.30;43.50
11239;DHT22;5677;48.488;13.436;2023-03-01T02:05:57;11.30;43.50
11239;DHT22;5677;48.488;13.436;2023-03-01T02:08:29;11.30;43.50
11239;DHT22;5677;48.488;13.436;2023-03-01T02:10:57;11.30;43.50
11239;DHT22;5677;48.488;13.436;2023-03-01T02:13:25;11.30;40.50
11239;DHT22;5677;48.488;13.436;2023-03-01T02:15:52;11.30;43.70
11239;DHT22;5677;48.488;13.436;2023-03-01T02:18:22;11.30;43.50
11239;DHT22;5677;48.488;13.436;2023-03-01T02:20:58;11.30;43.20
11239;DHT22;5677;48.488;13.436;2023-03-01T02:23:26;11.30;43.20
11239;DHT22;5677;48.488;13.436;2023-03-01T02:25:57;11.30;43.10
11239;DHT22;5677;48.488;13.436;2023-03-01T02:28:33;11.30;43.20
11239;DHT22;5677;48.488;13.436;2023-03-01T02:31:01;11.30;43.20
11239;DHT22;5677;48.488;13.436;2023-03-01T02:33:46;11.30;43.80
11239;DHT22;5677;48.488;13.436;2023-03-01T02:36:17;11.30;43.20
11239;DHT22;5677;48.488;13.436;2023-03-01T02:38:45;11.30;43.20
11239;DHT22;5677;48.488;13.436;2023-03-01T02:41:15;11.30;43.20
11239;DHT22;5677;48.488;13.436;2023-03-01T02:43:44;11.30;43.20
11239;DHT22;5677;48.488;13.436;2023-03-01T02:46:14;11.30;43.20
11239;DHT22;5677;48.488;13.436;2023-03-01T02:48:44;11.30;43.20
11239;DHT22;5677;48.488;13.436;2023-03-01T02:51:21;11.30;43.20
11239;DHT22;5677;48.488;13.436;2023-03-01T02:53:56;11.30;43.20
11239;DHT22;5677;48.488;13.436;2023-03-01T02:56:26;11.30;43.20
11239;DHT22;5677;48.488;13.436;2023-03-01T02:58:54;11.30;43.20
11239;DHT22;5677;48.488;13.436;2023-03-01T03:01:26;11.30;43.20
11239;DHT22;5677;48.488;13.436;2023-03-01T03:04:02;11.30;43.20
11239;DHT22;5677;48.488;13.436;2023-03-01T03:06:29;11.30;43.10
11239;DHT22;5677;48.488;13.436;2023-03-01T03:08:55;11.30;43.10
11239;DHT22;5677;48.488;13.436;2023-03-01T03:11:22;11.30;43.10
11239;DHT22;5677;48.488;13.436;2023-03-01T03:13:49;11.30;43.50
11239;DHT22;5677;48.488;13.436;2023-03-01T03:16:19;11.30;43.20
11239;DHT22;5677;48.488;13.436;2023-03-01T03:18:46;11.30;43.10
11239;DHT22;5677;48.488;13.436;2023-03-01T03:21:13;11.30;43.10
11239;DHT22;5677;48.488;13.436;2023-03-01T03:23:40;11.20;43.10
11239;DHT22;5677;48.488;13.436;2023-03-01T03:26:07;11.30;43.10
11239;DHT22;5677;48.488;13.436;2023-03-01T03:28:34;11.30;43.10
11239;DHT22;5677;48.488;13.436;2023-03-01T03:31:06;11.30;43.20
11239;DHT22;5677;48.488;13.436;2023-03-01T03:33:34;11.30;43.20
11239;DHT22;5677;48.488;13.436;2023-03-01T03:36:01;11.30;43.20
11239;DHT22;5677;48.488;13.436;2023-03-01T03:38:27;11.30;43.10
11239;DHT22;5677;48.488;13.436;2023-03-01T03:41:00;11.20;43.10
11239;DHT22;5677;48.488;13.436;2023-03-01T03:43:28;11.30;43.10
11239;DHT22;5677;48.488;13.436;2023-03-01T03:45:55;11.30;43.20
11239;DHT22;5677;48.488;13.436;2023-03-01T03:48:24;11.30;43.10
11239;DHT22;5677;48.488;13.436;2023-03-01T03:50:53;11.20;43.00
11239;DHT22;5677;48.488;13.436;2023-03-01T03:53:22;11.20;43.00
11239;DHT22;5677;48.488;13.436;2023-03-01T03:55:49;11.30;43.80
11239;DHT22;5677;48.488;13.436;2023-03-01T03:58:17;11.30;43.10
11239;DHT22;5677;48.488;13.436;2023-03-01T04:00:46;11.30;43.00
11239;DHT22;5677;48.488;13.436;2023-03-01T04:03:16;11.30;43.00
11239;DHT22;5677;48.488;13.436;2023-03-01T04:05:44;11.20;42.90
11239;DHT22;5677;48.488;13.436;2023-03-01T04:08:13;11.30;43.00
11239;DHT22;5677;48.488;13.436;2023-03-01T04:10:41;11.30;43.00
11239;DHT22;5677;48.488;13.436;2023-03-01T04:13:11;11.30;43.00
11239;DHT22;5677;48.488;13.436;2023-03-01T04:15:38;11.30;43.00
11239;DHT22;5677;48.488;13.436;2023-03-01T04:18:05;11.30;43.00
11239;DHT22;5677;48.488;13.436;2023-03-01T04:20:34;11.30;43.10
11239;DHT22;5677;48.488;13.436;2023-03-01T04:23:03;11.20;42.90
11239;DHT22;5677;48.488;13.436;2023-03-01T04:25:38;11.20;42.90
11239;DHT22;5677;48.488;13.436;2023-03-01T04:28:05;11.30;43.10
11239;DHT22;5677;48.488;13.436;2023-03-01T04:30:31;11.30;43.00
11239;DHT22;5677;48.488;13.436;2023-03-01T04:33:02;11.30;43.00
11239;DHT22;5677;48.488;13.436;2023-03-01T04:35:29;11.30;43.00
11239;DHT22;5677;48.488;13.436;2023-03-01T04:37:55;11.30;43.00
11239;DHT22;5677;48.488;13.436;2023-03-01T04:40:22;11.30;43.00
11239;DHT22;5677;48.488;13.436;2023-03-01T04:42:50;11.30;43.00
11239;DHT22;5677;48.488;13.436;2023-03-01T04:45:17;11.30;43.00
11239;DHT22;5677;48.488;13.436;2023-03-01T04:47:45;11.30;43.00
11239;DHT22;5677;48.488;13.436;2023-03-01T04:50:15;11.30;43.00
11239;DHT22;5677;48.488;13.436;2023-03-01T04:52:43;11.30;42.90
11239;DHT22;5677;48.488;13.436;2023-03-01T04:55:10;11.30;42.90
11239;DHT22;5677;48.488;13.436;2023-03-01T04:57:37;11.20;42.80
11239;DHT22;5677;48.488;13.436;2023-03-01T05:00:09;11.30;42.90
11239;DHT22;5677;48.488;13.436;2023-03-01T05:02:46;11.30;42.90
11239;DHT22;5677;48.488;13.436;2023-03-01T05:05:14;11.20;42.80
11239;DHT22;5677;48.488;13.436;2023-03-01T05:07:41;11.30;42.90
11239;DHT22;5677;48.488;13.436;2023-03-01T05:10:09;11.30;42.90
11239;DHT22;5677;48.488;13.436;2023-03-01T05:12:35;11.30;43.00
11239;DHT22;5677;48.488;13.436;2023-03-01T05:15:03;11.20;42.80
11239;DHT22;5677;48.488;13.436;2023-03-01T05:17:33;11.30;43.00
11239;DHT22;5677;48.488;13.436;2023-03-01T05:20:00;11.30;42.90
11239;DHT22;5677;48.488;13.436;2023-03-01T05:22:29;11.30;42.90
11239;DHT22;5677;48.488;13.436;2023-03-01T05:24:56;11.30;42.90
11239;DHT22;5677;48.488;13.436;2023-03-01T05:27:22;11.30;42.90
11239;DHT22;5677;48.488;13.436;2023-03-01T05:29:49;11.30;42.90
11239;DHT22;5677;48.488;13.436;2023-03-01T05:32:16;11.20;42.80
11239;DHT22;5677;48.488;13.436;2023-03-01T05:34:44;11.30;42.90
11239;DHT22;5677;48.488;13.436;2023-03-01T05:37:11;11.30;42.80
11239;DHT22;5677;48.488;13.436;2023-03-01T05:39:38;11.30;42.90
11239;DHT22;5677;48.488;13.436;2023-03-01T05:42:10;11.30;42.90
11239;DHT22;5677;48.488;13.436;2023-03-01T05:44:37;11.30;42.80
11239;DHT22;5677;48.488;13.436;2023-03-01T05:47:04;11.20;42.70
11239;DHT22;5677;48.488;13.436;2023-03-01T05:49:31;11.30;42.80
11239;DHT22;5677;48.488;13.436;2023-03-01T05:51:59;11.20;42.60
11239;DHT22;5677;48.488;13.436;2023-03-01T05:54:26;11.30;42.80
11239;DHT22;5677;48.488;13.436;2023-03-01T05:56:53;11.30;42.70
11239;DHT22;5677;48.488;13.436;2023-03-01T05:59:20;11.30;42.80
11239;DHT22;5677;48.488;13.436;2023-03-01T06:01:46;11.30;42.70
11239;DHT22;5677;48.488;13.436;2023-03-01T06:04:14;11.20;42.60
11239;DHT22;5677;48.488;13.436;2023-03-01T06:06:41;11.20;42.70
11239;DHT22;5677;48.488;13.436;2023-03-01T06:09:09;11.30;42.70
11239;DHT22;5677;48.488;13.436;2023-03-01T06:11:36;11.30;42.70
11239;DHT22;5677;48.488;13.436;2023-03-01T06:14:03;11.20;42.60
11239;DHT22;5677;48.488;13.436;2023-03-01T06:16:31;11.20;42.50
11239;DHT22;5677;48.488;13.436;2023-03-01T06:18:58;11.30;42.60
11239;DHT22;5677;48.488;13.436;2023-03-01T06:21:25;11.20;42.60
11239;DHT22;5677;48.488;13.436;2023-03-01T06:23:52;11.20;42.50
11239;DHT22;5677;48.488;13.436;2023-03-01T06:26:20;11.30;42.60
11239;DHT22;5677;48.488;13.436;2023-03-01T06:28:47;11.30;42.50
11239;DHT22;5677;48.488;13.436;2023-03-01T06:31:13;11.30;42.40
11239;DHT22;5677;48.488;13.436;2023-03-01T06:33:40;11.30;42.40
11239;DHT22;5677;48.488;13.436;2023-03-01T06:36:08;11.30;43.80
11239;DHT22;5677;48.488;13.436;2023-03-01T06:38:35;11.40;44.70
11239;DHT22;5677;48.488;13.436;2023-03-01T06:41:02;11.40;45.30
11239;DHT22;5677;48.488;13.436;2023-03-01T06:43:30;11.50;45.40
11239;DHT22;5677;48.488;13.436;2023-03-01T06:45:57;11.60;45.40
11239;DHT22;5677;48.488;13.436;2023-03-01T06:48:23;11.60;45.30
11239;DHT22;5677;48.488;13.436;2023-03-01T06:50:50;11.70;45.30
11239;DHT22;5677;48.488;13.436;2023-03-01T06:53:17;11.70;45.10
11239;DHT22;5677;48.488;13.436;2023-03-01T06:55:44;11.70;44.90
11239;DHT22;5677;48.488;13.436;2023-03-01T06:58:10;11.80;44.70
11239;DHT22;5677;48.488;13.436;2023-03-01T07:00:38;11.80;44.50
11239;DHT22;5677;48.488;13.436;2023-03-01T07:03:06;11.90;44.40
11239;DHT22;5677;48.488;13.436;2023-03-01T07:05:33;11.90;44.20
11239;DHT22;5677;48.488;13.436;2023-03-01T07:08:00;11.90;43.90
11239;DHT22;5677;48.488;13.436;2023-03-01T07:10:27;12.00;43.80
11239;DHT22;5677;48.488;13.436;2023-03-01T07:12:55;12.00;43.80
11239;DHT22;5677;48.488;13.436;2023-03-01T07:15:21;12.10;43.80
11239;DHT22;5677;48.488;13.436;2023-03-01T07:17:49;12.00;32.20
11239;DHT22;5677;48.488;13.436;2023-03-01T07:20:17;11.90;35.60
11239;DHT22;5677;48.488;13.436;2023-03-01T07:22:43;11.90;38.50
11239;DHT22;5677;48.488;13.436;2023-03-01T07:25:10;11.90;39.90
11239;DHT22;5677;48.488;13.436;2023-03-01T07:27:37;12.00;40.20
11239;DHT22;5677;48.488;13.436;2023-03-01T07:30:05;12.00;40.40
11239;DHT22;5677;48.488;13.436;2023-03-01T07:32:32;12.10;40.70
11239;DHT22;5677;48.488;13.436;2023-03-01T07:35:00;12.20;40.80
11239;DHT22;5677;48.488;13.436;2023-03-01T07:37:27;12.20;40.80
11239;DHT22;5677;48.488;13.436;2023-03-01T07:39:54;12.30;40.80
11239;DHT22;5677;48.488;13.436;2023-03-01T07:42:20;12.40;40.70
11239;DHT22;5677;48.488;13.436;2023-03-01T07:44:47;12.40;40.60
11239;DHT22;5677;48.488;13.436;2023-03-01T07:47:14;12.50;40.60
11239;DHT22;5677;48.488;13.436;2023-03-01T07:49:40;12.60;40.50
11239;DHT22;5677;48.488;13.436;2023-03-01T07:52:10;12.60;40.30
11239;DHT22;5677;48.488;13.436;2023-03-01T07:54:37;12.70;40.40
11239;DHT22;5677;48.488;13.436;2023-03-01T07:57:04;12.70;37.70
11239;DHT22;5677;48.488;13.436;2023-03-01T07:59:31;12.80;37.80
11239;DHT22;5677;48.488;13.436;2023-03-01T08:01:58;12.80;38.90
11239;DHT22;5677;48.488;13.436;2023-03-01T08:04:25;12.90;39.40
11239;DHT22;5677;48.488;13.436;2023-03-01T08:06:52;13.00;38.60
11239;DHT22;5677;48.488;13.436;2023-03-01T08:09:21;13.00;37.60
11239;DHT22;5677;48.488;13.436;2023-03-01T08:11:48;13.10;38.00
11239;DHT22;5677;48.488;13.436;2023-03-01T08:14:15;13.10;38.10
11239;DHT22;5677;48.488;13.436;2023-03-01T08:16:42;13.10;38.30
11239;DHT22;5677;48.488;13.436;2023-03-01T08:19:10;13.20;39.00
11239;DHT22;5677;48.488;13.436;2023-03-01T08:21:38;13.10;27.70
11239;DHT22;5677;48.488;13.436;2023-03-01T08:24:06;12.60;26.20
11239;DHT22;5677;48.488;13.436;2023-03-01T08:26:34;12.40;26.70
11239;DHT22;5677;48.488;13.436;2023-03-01T08:29:01;12.10;27.10
11239;DHT22;5677;48.488;13.436;2023-03-01T08:31:31;12.00;28.70
11239;DHT22;5677;48.488;13.436;2023-03-01T08:33:59;12.00;30.00
11239;DHT22;5677;48.488;13.436;2023-03-01T08:36:27;12.10;31.60
11239;DHT22;5677;48.488;13.436;2023-03-01T08:38:54;12.30;33.30
11239;DHT22;5677;48.488;13.436;2023-03-01T08:41:22;12.50;34.10
11239;DHT22;5677;48.488;13.436;2023-03-01T08:43:50;12.80;34.40
11239;DHT22;5677;48.488;13.436;2023-03-01T08:46:18;13.00;34.40
11239;DHT22;5677;48.488;13.436;2023-03-01T08:48:45;13.10;34.20
11239;DHT22;5677;48.488;13.436;2023-03-01T08:51:13;13.30;34.30
11239;DHT22;5677;48.488;13.436;2023-03-01T08:53:41;13.40;34.40
11239;DHT22;5677;48.488;13.436;2023-03-01T08:56:08;13.60;34.60
11239;DHT22;5677;48.488;13.436;2023-03-01T08:58:35;13.70;34.80
11239;DHT22;5677;48.488;13.436;2023-03-01T09:01:08;13.80;34.70
11239;DHT22;5677;48.488;13.436;2023-03-01T09:03:35;13.90;34.90
11239;DHT22;5677;48.488;13.436;2023-03-01T09:06:04;13.90;35.10
11239;DHT22;5677;48.488;13.436;2023-03-01T09:11:01;14.10;35.60
11239;DHT22;5677;48.488;13.436;2023-03-01T09:13:28;14.10;35.80
11239;DHT22;5677;48.488;13.436;2023-03-01T09:15:56;14.20;34.20
11239;DHT22;5677;48.488;13.436;2023-03-01T09:18:24;14.10;31.40
11239;DHT22;5677;48.488;13.436;2023-03-01T09:20:51;14.10;31.20
11239;DHT22;5677;48.488;13.436;2023-03-01T09:23:20;14.10;32.90
11239;DHT22;5677;48.488;13.436;2023-03-01T09:25:47;14.00;32.00
11239;DHT22;5677;48.488;13.436;2023-03-01T09:28:13;14.00;31.70
11239;DHT22;5677;48.488;13.436;2023-03-01T09:30:40;13.90;32.20
11239;DHT22;5677;48.488;13.436;2023-03-01T09:33:07;13.80;32.60
11239;DHT22;5677;48.488;13.436;2023-03-01T09:35:41;13.80;33.00
11239;DHT22;5677;48.488;13.436;2023-03-01T09:38:12;13.70;33.20
11239;DHT22;5677;48.488;13.436;2023-03-01T09:40:42;13.70;33.20
11239;DHT22;5677;48.488;13.436;2023-03-01T09:43:18;13.60;33.50
11239;DHT22;5677;48.488;13.436;2023-03-01T09:45:48;13.50;33.70
11239;DHT22;5677;48.488;13.436;2023-03-01T09:48:19;13.50;33.50
11239;DHT22;5677;48.488;13.436;2023-03-01T09:50:49;13.40;34.30
11239;DHT22;5677;48.488;13.436;2023-03-01T09:53:17;13.40;33.90
11239;DHT22;5677;48.488;13.436;2023-03-01T09:55:48;13.40;34.30
11239;DHT22;5677;48.488;13.436;2023-03-01T09:58:36;13.40;34.40
11239;DHT22;5677;48.488;13.436;2023-03-01T10:01:15;13.40;34.10
11239;DHT22;5677;48.488;13.436;2023-03-01T10:03:58;13.30;33.70
11239;DHT22;5677;48.488;13.436;2023-03-01T10:06:28;13.30;30.40
11239;DHT22;5677;48.488;13.436;2023-03-01T10:08:56;13.30;32.90
11239;DHT22;5677;48.488;13.436;2023-03-01T10:11:28;13.20;34.00
11239;DHT22;5677;48.488;13.436;2023-03-01T10:13:58;13.20;34.40
11239;DHT22;5677;48.488;13.436;2023-03-01T10:16:36;13.20;33.90
11239;DHT22;5677;48.488;13.436;2023-03-01T10:19:05;13.30;34.40
11239;DHT22;5677;48.488;13.436;2023-03-01T10:21:43;13.20;35.00
11239;DHT22;5677;48.488;13.436;2023-03-01T10:24:13;13.20;35.40
11239;DHT22;5677;48.488;13.436;2023-03-01T10:26:48;13.30;34.80
11239;DHT22;5677;48.488;13.436;2023-03-01T10:29:15;13.30;32.50
11239;DHT22;5677;48.488;13.436;2023-03-01T10:31:43;13.20;31.20
11239;DHT22;5677;48.488;13.436;2023-03-01T10:34:13;13.20;31.40
11239;DHT22;5677;48.488;13.436;2023-03-01T10:36:42;13.10;32.20
11239;DHT22;5677;48.488;13.436;2023-03-01T10:39:15;13.10;33.10
11239;DHT22;5677;48.488;13.436;2023-03-01T10:41:53;13.00;32.90
11239;DHT22;5677;48.488;13.436;2023-03-01T10:44:41;13.00;32.50
11239;DHT22;5677;48.488;13.436;2023-03-01T10:47:14;13.00;32.60
11239;DHT22;5677;48.488;13.436;2023-03-01T10:49:52;12.90;33.00
11239;DHT22;5677;48.488;13.436;2023-03-01T10:52:22;12.90;32.80
11239;DHT22;5677;48.488;13.436;2023-03-01T10:54:55;12.90;32.70
11239;DHT22;5677;48.488;13.436;2023-03-01T10:57:33;12.80;33.00
11239;DHT22;5677;48.488;13.436;2023-03-01T11:00:23;12.80;32.90
11239;DHT22;5677;48.488;13.436;2023-03-01T11:03:03;12.80;33.30
11239;DHT22;5677;48.488;13.436;2023-03-01T11:05:30;12.80;33.40
11239;DHT22;5677;48.488;13.436;2023-03-01T11:08:01;12.70;33.50
11239;DHT22;5677;48.488;13.436;2023-03-01T11:10:30;12.70;33.40
11239;DHT22;5677;48.488;13.436;2023-03-01T11:13:08;12.70;33.50
11239;DHT22;5677;48.488;13.436;2023-03-01T11:15:35;12.70;34.10
11239;DHT22;5677;48.488;13.436;2023-03-01T11:18:02;12.70;33.80
11239;DHT22;5677;48.488;13.436;2023-03-01T11:20:32;12.60;34.60
11239;DHT22;5677;48.488;13.436;2023-03-01T11:23:04;12.60;34.90
11239;DHT22;5677;48.488;13.436;2023-03-01T11:25:35;12.60;34.80
11239;DHT22;5677;48.488;13.436;2023-03-01T11:28:05;12.60;34.50
11239;DHT22;5677;48.488;13.436;2023-03-01T11:30:37;12.60;34.50
11239;DHT22;5677;48.488;13.436;2023-03-01T11:33:15;12.60;34.70
11239;DHT22;5677;48.488;13.436;2023-03-01T11:35:47;12.60;34.80
11239;DHT22;5677;48.488;13.436;2023-03-01T11:38:21;12.60;34.70
11239;DHT22;5677;48.488;13.436;2023-03-01T11:40:52;12.60;34.70
11239;DHT22;5677;48.488;13.436;2023-03-01T11:43:24;12.60;34.70
11239;DHT22;5677;48.488;13.436;2023-03-01T11:48:56;12.60;35.10
11239;DHT22;5677;48.488;13.436;2023-03-01T11:51:38;12.60;35.20
11239;DHT22;5677;48.488;13.436;2023-03-01T11:54:20;12.70;35.40
11239;DHT22;5677;48.488;13.436;2023-03-01T11:56:52;12.70;35.50
11239;DHT22;5677;48.488;13.436;2023-03-01T11:59:44;12.70;35.00
11239;DHT22;5677;48.488;13.436;2023-03-01T12:02:47;12.80;35.00
11239;DHT22;5677;48.488;13.436;2023-03-01T12:08:32;12.80;35.50
11239;DHT22;5677;48.488;13.436;2023-03-01T12:11:07;12.90;35.70
11239;DHT22;5677;48.488;13.436;2023-03-01T12:13:57;12.90;35.80
11239;DHT22;5677;48.488;13.436;2023-03-01T12:16:34;13.00;35.70
11239;DHT22;5677;48.488;13.436;2023-03-01T12:19:19;13.00;35.10
11239;DHT22;5677;48.488;13.436;2023-03-01T12:22:09;13.00;34.90
11239;DHT22;5677;48.488;13.436;2023-03-01T12:25:04;13.00;34.80
11239;DHT22;5677;48.488;13.436;2023-03-01T12:27:51;13.00;34.30
11239;DHT22;5677;48.488;13.436;2023-03-01T12:30:29;13.00;34.30
11239;DHT22;5677;48.488;13.436;2023-03-01T12:33:13;13.00;34.40
11239;DHT22;5677;48.488;13.436;2023-03-01T12:36:16;13.00;34.30
11239;DHT22;5677;48.488;13.436;2023-03-01T12:38:50;13.00;35.00
11239;DHT22;5677;48.488;13.436;2023-03-01T12:41:31;13.00;34.50
11239;DHT22;5677;48.488;13.436;2023-03-01T12:44:12;12.90;34.50
11239;DHT22;5677;48.488;13.436;2023-03-01T12:46:52;12.90;34.80
11239;DHT22;5677;48.488;13.436;2023-03-01T12:49:24;12.90;35.40
11239;DHT22;5677;48.488;13.436;2023-03-01T12:51:56;12.90;35.30
11239;DHT22;5677;48.488;13.436;2023-03-01T12:54:27;12.80;35.80
11239;DHT22;5677;48.488;13.436;2023-03-01T12:56:55;12.90;36.70
11239;DHT22;5677;48.488;13.436;2023-03-01T12:59:31;12.80;36.60
11239;DHT22;5677;48.488;13.436;2023-03-01T13:02:05;12.90;36.60
11239;DHT22;5677;48.488;13.436;2023-03-01T13:04:45;12.90;36.50
11239;DHT22;5677;48.488;13.436;2023-03-01T13:07:25;12.90;36.50
11239;DHT22;5677;48.488;13.436;2023-03-01T13:10:04;13.00;36.50
11239;DHT22;5677;48.488;13.436;2023-03-01T13:13:02;13.00;36.50
11239;DHT22;5677;48.488;13.436;2023-03-01T13:15:36;13.10;36.50
11239;DHT22;5677;48.488;13.436;2023-03-01T13:18:28;13.10;36.10
11239;DHT22;5677;48.488;13.436;2023-03-01T13:20:56;13.10;36.20
11239;DHT22;5677;48.488;13.436;2023-03-01T13:23:26;13.10;35.70
11239;DHT22;5677;48.488;13.436;2023-03-01T13:26:09;13.10;35.80
11239;DHT22;5677;48.488;13.436;2023-03-01T13:28:56;13.10;35.70
11239;DHT22;5677;48.488;13.436;2023-03-01T13:32:00;13.10;35.60
11239;DHT22;5677;48.488;13.436;2023-03-01T13:34:49;13.00;35.50
11239;DHT22;5677;48.488;13.436;2023-03-01T13:37:28;13.00;35.50
11239;DHT22;5677;48.488;13.436;2023-03-01T13:39:58;13.00;35.40
11239;DHT22;5677;48.488;13.436;2023-03-01T13:42:41;13.00;35.30
11239;DHT22;5677;48.488;13.436;2023-03-01T13:45:33;13.00;35.40
11239;DHT22;5677;48.488;13.436;2023-03-01T13:48:08;13.00;35.30
11239;DHT22;5677;48.488;13.436;2023-03-01T13:50:43;12.90;35.40
11239;DHT22;5677;48.488;13.436;2023-03-01T13:53:15;13.00;35.30
11239;DHT22;5677;48.488;13.436;2023-03-01T13:55:45;12.90;35.30
11239;DHT22;5677;48.488;13.436;2023-03-01T13:58:18;12.90;35.30
11239;DHT22;5677;48.488;13.436;2023-03-01T14:00:46;12.90;35.50
11239;DHT22;5677;48.488;13.436;2023-03-01T14:03:16;12.90;36.10
11239;DHT22;5677;48.488;13.436;2023-03-01T14:05:50;12.90;36.80
11239;DHT22;5677;48.488;13.436;2023-03-01T14:08:24;12.90;37.50
11239;DHT22;5677;48.488;13.436;2023-03-01T14:10:59;12.90;37.70
11239;DHT22;5677;48.488;13.436;2023-03-01T14:13:39;12.90;37.60
11239;DHT22;5677;48.488;13.436;2023-03-01T14:16:20;12.90;37.60
11239;DHT22;5677;48.488;13.436;2023-03-01T14:19:00;13.00;38.20
11239;DHT22;5677;48.488;13.436;2023-03-01T14:21:29;13.00;37.70
11239;DHT22;5677;48.488;13.436;2023-03-01T14:23:57;13.00;37.70
11239;DHT22;5677;48.488;13.436;2023-03-01T14:26:25;13.00;37.70
11239;DHT22;5677;48.488;13.436;2023-03-01T14:28:51;13.10;37.70
11239;DHT22;5677;48.488;13.436;2023-03-01T14:31:37;13.10;37.80
11239;DHT22;5677;48.488;13.436;2023-03-01T14:34:05;13.10;37.80
11239;DHT22;5677;48.488;13.436;2023-03-01T14:36:34;13.10;37.80
11239;DHT22;5677;48.488;13.436;2023-03-01T14:39:01;13.10;37.80
11239;DHT22;5677;48.488;13.436;2023-03-01T14:41:33;13.10;37.90
11239;DHT22;5677;48.488;13.436;2023-03-01T14:44:03;13.10;37.80
11239;DHT22;5677;48.488;13.436;2023-03-01T14:46:33;13.10;37.90
11239;DHT22;5677;48.488;13.436;2023-03-01T14:49:03;13.10;37.90
11239;DHT22;5677;48.488;13.436;2023-03-01T14:51:36;13.10;38.00
11239;DHT22;5677;48.488;13.436;2023-03-01T14:54:04;13.10;38.70
11239;DHT22;5677;48.488;13.436;2023-03-01T14:56:44;13.10;38.20
11239;DHT22;5677;48.488;13.436;2023-03-01T14:59:11;13.10;38.20
11239;DHT22;5677;48.488;13.436;2023-03-01T15:01:39;13.10;38.30
11239;DHT22;5677;48.488;13.436;2023-03-01T15:04:07;13.10;38.40
11239;DHT22;5677;48.488;13.436;2023-03-01T15:06:38;13.10;38.40
11239;DHT22;5677;48.488;13.436;2023-03-01T15:09:05;13.10;38.40
11239;DHT22;5677;48.488;13.436;2023-03-01T15:11:33;13.10;38.50
11239;DHT22;5677;48.488;13.436;2023-03-01T15:14:27;13.10;38.50
11239;DHT22;5677;48.488;13.436;2023-03-01T15:16:54;13.10;38.70
11239;DHT22;5677;48.488;13.436;2023-03-01T15:19:23;13.20;38.70
11239;DHT22;5677;48.488;13.436;2023-03-01T15:21:50;13.10;38.70
11239;DHT22;5677;48.488;13.436;2023-03-01T15:24:20;13.10;38.70
11239;DHT22;5677;48.488;13.436;2023-03-01T15:26:52;13.10;38.80
11239;DHT22;5677;48.488;13.436;2023-03-01T15:29:22;13.10;38.90
11239;DHT22;5677;48.488;13.436;2023-03-01T15:31:58;13.10;38.90
11239;DHT22;5677;48.488;13.436;2023-03-01T15:34:30;13.10;38.80
11239;DHT22;5677;48.488;13.436;2023-03-01T15:36:58;13.10;38.90
11239;DHT22;5677;48.488;13.436;2023-03-01T15:39:35;13.00;39.10
11239;DHT22;5677;48.488;13.436;2023-03-01T15:42:05;13.00;39.30
11239;DHT22;5677;48.488;13.436;2023-03-01T15:44:33;13.00;39.30
11239;DHT22;5677;48.488;13.436;2023-03-01T15:47:08;13.00;39.40
11239;DHT22;5677;48.488;13.436;2023-03-01T15:49:47;13.00;39.50
11239;DHT22;5677;48.488;13.436;2023-03-01T15:52:20;13.00;39.50
11239;DHT22;5677;48.488;13.436;2023-03-01T15:54:54;13.00;39.60
11239;DHT22;5677;48.488;13.436;2023-03-01T15:57:21;12.90;39.60
11239;DHT22;5677;48.488;13.436;2023-03-01T15:59:48;12.90;39.60
11239;DHT22;5677;48.488;13.436;2023-03-01T16:02:16;13.00;39.60